sensor_id;sensor_type;location;lat;lon;timestamp;P1;durP1;ratioP1;P2;durP2;ratioP2
39190;SDS011;24916;51.676;6.614;2023-05-10T00:00:09;9.35;;;7.75;;
39190;SDS011;24916;51.676;6.614;2023-05-10T00:02:34;9.15;;;7.30;;
39190;SDS011;24916;51.676;6.614;2023-05-10T00:04:59;8.27;;;6.93;;
39190;SDS011;24916;51.676;6.614;2023-05-10T00:07:25;9.93;;;6.75;;
39190;SDS011;24916;51.676;6.614;2023-05-10T00:09:50;10.18;;;7.20;;
39190;SDS011;24916;51.676;6.614;2023-05-10T00:12:15;8.20;;;7.00;;
39190;SDS011;24916;51.676;6.614;2023-05-10T00:14:40;9.07;;;7.10;;
39190;SDS011;24916;51.676;6.614;2023-05-10T00:17:05;12.48;;;7.40;;
39190;SDS011;24916;51.676;6.614;2023-05-10T00:19:31;10.10;;;8.27;;
39190;SDS011;24916;51.676;6.614;2023-05-10T00:21:56;10.98;;;8.88;;
39190;SDS011;24916;51.676;6.614;2023-05-10T00:24:21;11.60;;;8.75;;
39190;SDS011;24916;51.676;6.614;2023-05-10T00:26:46;10.30;;;8.53;;
39190;SDS011;24916;51.676;6.614;2023-05-10T00:29:11;9.80;;;8.30;;
39190;SDS011;24916;51.676;6.614;2023-05-10T00:31:37;14.27;;;8.77;;
39190;SDS011;24916;51.676;6.614;2023-05-10T00:34:02;11.68;;;8.27;;
39190;SDS011;24916;51.676;6.614;2023-05-10T00:36:28;11.02;;;8.60;;
39190;SDS011;24916;51.676;6.614;2023-05-10T00:38:53;9.07;;;8.13;;
39190;SDS011;24916;51.676;6.614;2023-05-10T00:41:18;11.23;;;9.40;;
39190;SDS011;24916;51.676;6.614;2023-05-10T00:43:43;11.77;;;8.95;;
39190;SDS011;24916;51.676;6.614;2023-05-10T00:46:09;13.95;;;9.85;;
39190;SDS011;24916;51.676;6.614;2023-05-10T00:48:34;12.75;;;10.32;;
39190;SDS011;24916;51.676;6.614;2023-05-10T00:51:00;12.80;;;10.45;;
39190;SDS011;24916;51.676;6.614;2023-05-10T00:53:26;11.45;;;10.25;;
39190;SDS011;24916;51.676;6.614;2023-05-10T00:55:51;16.27;;;10.95;;
39190;SDS011;24916;51.676;6.614;2023-05-10T00:58:16;13.90;;;11.25;;
39190;SDS011;24916;51.676;6.614;2023-05-10T01:00:42;15.23;;;11.63;;
39190;SDS011;24916;51.676;6.614;2023-05-10T01:03:08;17.35;;;11.60;;
39190;SDS011;24916;51.676;6.614;2023-05-10T01:05:34;15.23;;;12.23;;
39190;SDS011;24916;51.676;6.614;2023-05-10T01:07:59;15.90;;;11.95;;
39190;SDS011;24916;51.676;6.614;2023-05-10T01:10:25;15.05;;;11.68;;
39190;SDS011;24916;51.676;6.614;2023-05-10T01:12:50;18.83;;;12.77;;
39190;SDS011;24916;51.676;6.614;2023-05-10T01:15:15;18.13;;;12.55;;
39190;SDS011;24916;51.676;6.614;2023-05-10T01:17:42;16.55;;;12.43;;
39190;SDS011;24916;51.676;6.614;2023-05-10T01:20:09;16.45;;;12.35;;
39190;SDS011;24916;51.676;6.614;2023-05-10T01:23:07;18.40;;;13.75;;
39190;SDS011;24916;51.676;6.614;2023-05-10T01:31:02;19.52;;;15.02;;
39190;SDS011;24916;51.676;6.614;2023-05-10T01:33:38;18.77;;;13.63;;
39190;SDS011;24916;51.676;6.614;2023-05-10T01:36:11;20.85;;;14.70;;
39190;SDS011;24916;51.676;6.614;2023-05-10T01:38:41;17.70;;;13.48;;
39190;SDS011;24916;51.676;6.614;2023-05-10T01:43:32;20.37;;;14.40;;
39190;SDS011;24916;51.676;6.614;2023-05-10T01:46:07;21.60;;;14.27;;
39190;SDS011;24916;51.676;6.614;2023-05-10T01:48:40;23.10;;;13.85;;
39190;SDS011;24916;51.676;6.614;2023-05-10T01:51:08;18.92;;;14.40;;
39190;SDS011;24916;51.676;6.614;2023-05-10T01:53:34;26.35;;;14.25;;
39190;SDS011;24916;51.676;6.614;2023-05-10T01:56:02;25.27;;;14.68;;
39190;SDS011;24916;51.676;6.614;2023-05-10T01:58:29;22.13;;;15.65;;
39190;SDS011;24916;51.676;6.614;2023-05-10T02:00:55;19.92;;;15.23;;
39190;SDS011;24916;51.676;6.614;2023-05-10T02:03:23;23.83;;;16.42;;
39190;SDS011;24916;51.676;6.614;2023-05-10T02:05:49;29.02;;;17.80;;
39190;SDS011;24916;51.676;6.614;2023-05-10T02:08:15;26.63;;;16.00;;
39190;SDS011;24916;51.676;6.614;2023-05-10T02:10:42;27.27;;;18.27;;
39190;SDS011;24916;51.676;6.614;2023-05-10T02:13:08;38.85;;;19.05;;
39190;SDS011;24916;51.676;6.614;2023-05-10T02:15:34;26.15;;;17.60;;
39190;SDS011;24916;51.676;6.614;2023-05-10T02:18:00;32.55;;;18.75;;
39190;SDS011;24916;51.676;6.614;2023-05-10T02:20:27;28.88;;;18.67;;
39190;SDS011;24916;51.676;6.614;2023-05-10T02:22:53;32.13;;;18.50;;
39190;SDS011;24916;51.676;6.614;2023-05-10T02:25:19;28.95;;;18.70;;
39190;SDS011;24916;51.676;6.614;2023-05-10T02:27:46;29.05;;;19.58;;
39190;SDS011;24916;51.676;6.614;2023-05-10T02:30:12;30.63;;;18.88;;
39190;SDS011;24916;51.676;6.614;2023-05-10T02:32:37;29.92;;;20.10;;
39190;SDS011;24916;51.676;6.614;2023-05-10T02:35:03;29.25;;;19.88;;
39190;SDS011;24916;51.676;6.614;2023-05-10T02:37:29;34.65;;;21.73;;
39190;SDS011;24916;51.676;6.614;2023-05-10T02:39:55;28.77;;;20.90;;
39190;SDS011;24916;51.676;6.614;2023-05-10T02:42:25;29.83;;;19.55;;
39190;SDS011;24916;51.676;6.614;2023-05-10T02:44:52;32.22;;;21.20;;
39190;SDS011;24916;51.676;6.614;2023-05-10T02:47:18;28.20;;;20.88;;
39190;SDS011;24916;51.676;6.614;2023-05-10T02:49:43;33.85;;;20.08;;
39190;SDS011;24916;51.676;6.614;2023-05-10T02:52:08;29.08;;;20.85;;
39190;SDS011;24916;51.676;6.614;2023-05-10T02:54:37;30.10;;;19.67;;
39190;SDS011;24916;51.676;6.614;2023-05-10T02:57:04;29.75;;;20.73;;
39190;SDS011;24916;51.676;6.614;2023-05-10T02:59:30;30.88;;;21.38;;
39190;SDS011;24916;51.676;6.614;2023-05-10T03:01:57;28.00;;;19.80;;
39190;SDS011;24916;51.676;6.614;2023-05-10T03:04:23;29.75;;;21.10;;
39190;SDS011;24916;51.676;6.614;2023-05-10T03:06:48;33.57;;;20.47;;
39190;SDS011;24916;51.676;6.614;2023-05-10T03:09:13;28.15;;;20.02;;
39190;SDS011;24916;51.676;6.614;2023-05-10T03:16:56;31.13;;;20.70;;
39190;SDS011;24916;51.676;6.614;2023-05-10T03:19:22;28.65;;;20.40;;
39190;SDS011;24916;51.676;6.614;2023-05-10T03:21:50;28.48;;;19.85;;
39190;SDS011;24916;51.676;6.614;2023-05-10T03:24:17;34.55;;;22.35;;
39190;SDS011;24916;51.676;6.614;2023-05-10T03:26:43;32.97;;;22.52;;
39190;SDS011;24916;51.676;6.614;2023-05-10T03:29:10;31.67;;;22.13;;
39190;SDS011;24916;51.676;6.614;2023-05-10T03:31:36;36.78;;;22.70;;
39190;SDS011;24916;51.676;6.614;2023-05-10T03:34:01;35.30;;;23.42;;
39190;SDS011;24916;51.676;6.614;2023-05-10T03:36:26;44.22;;;26.00;;
39190;SDS011;24916;51.676;6.614;2023-05-10T03:38:52;38.42;;;25.83;;
39190;SDS011;24916;51.676;6.614;2023-05-10T03:41:17;40.80;;;26.87;;
39190;SDS011;24916;51.676;6.614;2023-05-10T03:43:42;41.13;;;25.70;;
39190;SDS011;24916;51.676;6.614;2023-05-10T03:46:07;42.77;;;26.57;;
39190;SDS011;24916;51.676;6.614;2023-05-10T03:48:32;46.95;;;28.00;;
39190;SDS011;24916;51.676;6.614;2023-05-10T03:50:58;48.17;;;29.00;;
39190;SDS011;24916;51.676;6.614;2023-05-10T03:53:23;44.78;;;26.63;;
39190;SDS011;24916;51.676;6.614;2023-05-10T03:55:48;49.63;;;30.08;;
39190;SDS011;24916;51.676;6.614;2023-05-10T03:58:14;51.50;;;30.48;;
39190;SDS011;24916;51.676;6.614;2023-05-10T04:00:39;61.55;;;31.63;;
39190;SDS011;24916;51.676;6.614;2023-05-10T04:03:08;57.10;;;31.75;;
39190;SDS011;24916;51.676;6.614;2023-05-10T04:05:34;54.15;;;32.35;;
39190;SDS011;24916;51.676;6.614;2023-05-10T04:07:59;58.20;;;31.83;;
39190;SDS011;24916;51.676;6.614;2023-05-10T04:10:25;47.88;;;31.02;;
39190;SDS011;24916;51.676;6.614;2023-05-10T04:12:50;56.38;;;31.55;;
39190;SDS011;24916;51.676;6.614;2023-05-10T04:15:15;55.35;;;31.10;;
39190;SDS011;24916;51.676;6.614;2023-05-10T04:17:40;43.88;;;28.17;;
39190;SDS011;24916;51.676;6.614;2023-05-10T04:20:06;46.53;;;26.55;;
39190;SDS011;24916;51.676;6.614;2023-05-10T04:22:31;41.47;;;26.42;;
39190;SDS011;24916;51.676;6.614;2023-05-10T04:24:57;39.58;;;26.33;;
39190;SDS011;24916;51.676;6.614;2023-05-10T04:27:22;44.10;;;25.13;;
39190;SDS011;24916;51.676;6.614;2023-05-10T04:29:47;43.45;;;26.60;;
39190;SDS011;24916;51.676;6.614;2023-05-10T04:32:13;47.30;;;27.00;;
39190;SDS011;24916;51.676;6.614;2023-05-10T04:34:38;42.75;;;25.10;;
39190;SDS011;24916;51.676;6.614;2023-05-10T04:37:04;47.20;;;28.35;;
39190;SDS011;24916;51.676;6.614;2023-05-10T04:39:29;43.83;;;28.58;;
39190;SDS011;24916;51.676;6.614;2023-05-10T04:41:54;55.63;;;30.50;;
39190;SDS011;24916;51.676;6.614;2023-05-10T04:44:19;59.10;;;31.08;;
39190;SDS011;24916;51.676;6.614;2023-05-10T04:46:45;48.85;;;29.55;;
39190;SDS011;24916;51.676;6.614;2023-05-10T04:49:10;59.33;;;31.35;;
39190;SDS011;24916;51.676;6.614;2023-05-10T04:51:35;54.72;;;30.42;;
39190;SDS011;24916;51.676;6.614;2023-05-10T04:54:01;56.53;;;32.30;;
39190;SDS011;24916;51.676;6.614;2023-05-10T04:56:26;54.38;;;31.15;;
39190;SDS011;24916;51.676;6.614;2023-05-10T04:58:51;50.97;;;31.55;;
39190;SDS011;24916;51.676;6.614;2023-05-10T05:01:16;63.22;;;34.10;;
39190;SDS011;24916;51.676;6.614;2023-05-10T05:03:42;60.10;;;34.10;;
39190;SDS011;24916;51.676;6.614;2023-05-10T05:06:07;55.97;;;32.45;;
39190;SDS011;24916;51.676;6.614;2023-05-10T05:08:32;61.90;;;34.50;;
39190;SDS011;24916;51.676;6.614;2023-05-10T05:10:57;66.13;;;40.03;;
39190;SDS011;24916;51.676;6.614;2023-05-10T05:13:24;84.15;;;44.92;;
39190;SDS011;24916;51.676;6.614;2023-05-10T05:15:49;63.08;;;35.75;;
39190;SDS011;24916;51.676;6.614;2023-05-10T05:18:14;55.42;;;33.15;;
39190;SDS011;24916;51.676;6.614;2023-05-10T05:20:39;61.42;;;34.30;;
39190;SDS011;24916;51.676;6.614;2023-05-10T05:23:05;58.95;;;32.72;;
39190;SDS011;24916;51.676;6.614;2023-05-10T05:25:30;58.33;;;32.72;;
39190;SDS011;24916;51.676;6.614;2023-05-10T05:27:56;64.93;;;35.22;;
39190;SDS011;24916;51.676;6.614;2023-05-10T05:30:21;57.78;;;34.13;;
39190;SDS011;24916;51.676;6.614;2023-05-10T05:32:46;59.85;;;34.70;;
39190;SDS011;24916;51.676;6.614;2023-05-10T05:35:14;59.22;;;34.90;;
39190;SDS011;24916;51.676;6.614;2023-05-10T05:37:39;61.80;;;37.53;;
39190;SDS011;24916;51.676;6.614;2023-05-10T05:40:05;56.85;;;34.70;;
39190;SDS011;24916;51.676;6.614;2023-05-10T05:42:30;58.75;;;35.75;;
39190;SDS011;24916;51.676;6.614;2023-05-10T05:44:56;60.67;;;34.92;;
39190;SDS011;24916;51.676;6.614;2023-05-10T05:47:21;70.30;;;34.90;;
39190;SDS011;24916;51.676;6.614;2023-05-10T05:49:46;65.03;;;36.40;;
39190;SDS011;24916;51.676;6.614;2023-05-10T05:52:12;56.78;;;35.47;;
39190;SDS011;24916;51.676;6.614;2023-05-10T05:54:37;59.25;;;37.30;;
39190;SDS011;24916;51.676;6.614;2023-05-10T05:57:02;62.55;;;37.45;;
39190;SDS011;24916;51.676;6.614;2023-05-10T05:59:27;56.35;;;34.40;;
39190;SDS011;24916;51.676;6.614;2023-05-10T06:01:53;59.15;;;34.50;;
39190;SDS011;24916;51.676;6.614;2023-05-10T06:04:18;52.65;;;34.80;;
39190;SDS011;24916;51.676;6.614;2023-05-10T06:06:43;60.30;;;37.40;;
39190;SDS011;24916;51.676;6.614;2023-05-10T06:09:09;54.75;;;35.42;;
39190;SDS011;24916;51.676;6.614;2023-05-10T06:11:34;53.78;;;35.00;;
39190;SDS011;24916;51.676;6.614;2023-05-10T06:14:00;54.80;;;35.03;;
39190;SDS011;24916;51.676;6.614;2023-05-10T06:16:26;55.05;;;34.58;;
39190;SDS011;24916;51.676;6.614;2023-05-10T06:18:51;53.05;;;34.33;;
39190;SDS011;24916;51.676;6.614;2023-05-10T06:21:17;57.20;;;33.55;;
39190;SDS011;24916;51.676;6.614;2023-05-10T06:23:42;50.20;;;32.25;;
39190;SDS011;24916;51.676;6.614;2023-05-10T06:26:07;51.92;;;35.55;;
39190;SDS011;24916;51.676;6.614;2023-05-10T06:28:32;49.88;;;33.20;;
39190;SDS011;24916;51.676;6.614;2023-05-10T06:30:58;46.90;;;32.80;;
39190;SDS011;24916;51.676;6.614;2023-05-10T06:33:23;47.10;;;33.08;;
39190;SDS011;24916;51.676;6.614;2023-05-10T06:35:49;51.60;;;32.80;;
39190;SDS011;24916;51.676;6.614;2023-05-10T06:38:14;55.42;;;34.50;;
39190;SDS011;24916;51.676;6.614;2023-05-10T06:40:43;48.75;;;32.28;;
39190;SDS011;24916;51.676;6.614;2023-05-10T06:43:08;49.08;;;32.28;;
39190;SDS011;24916;51.676;6.614;2023-05-10T06:45:34;56.25;;;33.75;;
39190;SDS011;24916;51.676;6.614;2023-05-10T06:47:59;49.58;;;32.65;;
39190;SDS011;24916;51.676;6.614;2023-05-10T06:50:24;59.20;;;30.35;;
39190;SDS011;24916;51.676;6.614;2023-05-10T06:52:50;48.70;;;31.58;;
39190;SDS011;24916;51.676;6.614;2023-05-10T06:55:15;47.03;;;31.23;;
39190;SDS011;24916;51.676;6.614;2023-05-10T06:57:40;42.17;;;28.70;;
39190;SDS011;24916;51.676;6.614;2023-05-10T07:00:06;47.20;;;31.92;;
39190;SDS011;24916;51.676;6.614;2023-05-10T07:02:31;48.53;;;32.88;;
39190;SDS011;24916;51.676;6.614;2023-05-10T07:04:57;53.10;;;31.92;;
39190;SDS011;24916;51.676;6.614;2023-05-10T07:07:22;53.70;;;33.53;;
39190;SDS011;24916;51.676;6.614;2023-05-10T07:09:47;48.85;;;32.13;;
39190;SDS011;24916;51.676;6.614;2023-05-10T07:12:13;48.25;;;32.25;;
39190;SDS011;24916;51.676;6.614;2023-05-10T07:14:39;55.97;;;33.40;;
39190;SDS011;24916;51.676;6.614;2023-05-10T07:17:04;46.55;;;31.45;;
39190;SDS011;24916;51.676;6.614;2023-05-10T07:19:30;52.50;;;33.00;;
39190;SDS011;24916;51.676;6.614;2023-05-10T07:21:57;42.10;;;30.27;;
39190;SDS011;24916;51.676;6.614;2023-05-10T07:24:22;45.07;;;30.97;;
39190;SDS011;24916;51.676;6.614;2023-05-10T07:26:48;49.22;;;32.45;;
39190;SDS011;24916;51.676;6.614;2023-05-10T07:29:13;43.97;;;34.33;;
39190;SDS011;24916;51.676;6.614;2023-05-10T07:31:38;42.88;;;31.73;;
39190;SDS011;24916;51.676;6.614;2023-05-10T07:34:03;47.72;;;32.35;;
39190;SDS011;24916;51.676;6.614;2023-05-10T07:36:29;47.67;;;30.27;;
39190;SDS011;24916;51.676;6.614;2023-05-10T07:38:54;50.10;;;30.37;;
39190;SDS011;24916;51.676;6.614;2023-05-10T07:41:19;52.83;;;33.80;;
39190;SDS011;24916;51.676;6.614;2023-05-10T07:43:46;45.13;;;30.52;;
39190;SDS011;24916;51.676;6.614;2023-05-10T07:46:11;37.97;;;28.08;;
39190;SDS011;24916;51.676;6.614;2023-05-10T07:48:36;43.95;;;28.58;;
39190;SDS011;24916;51.676;6.614;2023-05-10T07:51:01;40.95;;;27.92;;
39190;SDS011;24916;51.676;6.614;2023-05-10T07:53:27;45.78;;;28.27;;
39190;SDS011;24916;51.676;6.614;2023-05-10T07:55:54;39.22;;;26.23;;
39190;SDS011;24916;51.676;6.614;2023-05-10T07:58:19;35.67;;;27.48;;
39190;SDS011;24916;51.676;6.614;2023-05-10T08:00:44;36.72;;;27.20;;
39190;SDS011;24916;51.676;6.614;2023-05-10T08:03:09;73.45;;;28.40;;
39190;SDS011;24916;51.676;6.614;2023-05-10T08:05:35;77.35;;;27.25;;
39190;SDS011;24916;51.676;6.614;2023-05-10T08:08:00;38.95;;;25.10;;
39190;SDS011;24916;51.676;6.614;2023-05-10T08:10:25;33.20;;;24.77;;
39190;SDS011;24916;51.676;6.614;2023-05-10T08:12:51;41.45;;;24.27;;
39190;SDS011;24916;51.676;6.614;2023-05-10T08:15:16;35.90;;;24.80;;
39190;SDS011;24916;51.676;6.614;2023-05-10T08:17:41;34.28;;;24.98;;
39190;SDS011;24916;51.676;6.614;2023-05-10T08:20:08;31.05;;;22.30;;
39190;SDS011;24916;51.676;6.614;2023-05-10T08:22:33;33.60;;;24.25;;
39190;SDS011;24916;51.676;6.614;2023-05-10T08:24:58;34.83;;;23.07;;
39190;SDS011;24916;51.676;6.614;2023-05-10T08:27:23;29.88;;;21.38;;
39190;SDS011;24916;51.676;6.614;2023-05-10T08:29:49;31.63;;;21.70;;
39190;SDS011;24916;51.676;6.614;2023-05-10T08:32:14;28.73;;;20.70;;
39190;SDS011;24916;51.676;6.614;2023-05-10T08:34:39;28.75;;;20.10;;
39190;SDS011;24916;51.676;6.614;2023-05-10T08:37:04;31.98;;;20.10;;
39190;SDS011;24916;51.676;6.614;2023-05-10T08:39:33;27.33;;;19.00;;
39190;SDS011;24916;51.676;6.614;2023-05-10T08:41:59;28.90;;;19.38;;
39190;SDS011;24916;51.676;6.614;2023-05-10T08:44:26;30.02;;;20.98;;
39190;SDS011;24916;51.676;6.614;2023-05-10T08:46:51;29.83;;;21.38;;
39190;SDS011;24916;51.676;6.614;2023-05-10T08:49:18;32.25;;;21.80;;
39190;SDS011;24916;51.676;6.614;2023-05-10T08:51:47;36.30;;;25.15;;
39190;SDS011;24916;51.676;6.614;2023-05-10T08:54:14;47.03;;;29.58;;
39190;SDS011;24916;51.676;6.614;2023-05-10T08:56:39;33.20;;;22.33;;
39190;SDS011;24916;51.676;6.614;2023-05-10T08:59:05;34.65;;;23.80;;
39190;SDS011;24916;51.676;6.614;2023-05-10T09:01:31;32.60;;;23.55;;
39190;SDS011;24916;51.676;6.614;2023-05-10T09:03:56;38.17;;;26.38;;
39190;SDS011;24916;51.676;6.614;2023-05-10T09:06:21;43.25;;;26.63;;
39190;SDS011;24916;51.676;6.614;2023-05-10T09:08:47;37.58;;;25.30;;
39190;SDS011;24916;51.676;6.614;2023-05-10T09:11:12;28.85;;;22.67;;
39190;SDS011;24916;51.676;6.614;2023-05-10T09:13:38;43.70;;;25.23;;
39190;SDS011;24916;51.676;6.614;2023-05-10T09:16:03;29.17;;;21.23;;
39190;SDS011;24916;51.676;6.614;2023-05-10T09:18:29;28.20;;;19.08;;
39190;SDS011;24916;51.676;6.614;2023-05-10T09:20:54;28.42;;;20.13;;
39190;SDS011;24916;51.676;6.614;2023-05-10T09:23:19;30.35;;;20.00;;
39190;SDS011;24916;51.676;6.614;2023-05-10T09:25:45;28.92;;;19.98;;
39190;SDS011;24916;51.676;6.614;2023-05-10T09:28:10;35.85;;;18.83;;
39190;SDS011;24916;51.676;6.614;2023-05-10T09:30:36;28.25;;;19.88;;
39190;SDS011;24916;51.676;6.614;2023-05-10T09:33:01;25.75;;;18.98;;
39190;SDS011;24916;51.676;6.614;2023-05-10T09:35:28;29.50;;;19.00;;
39190;SDS011;24916;51.676;6.614;2023-05-10T09:37:55;33.60;;;24.80;;
39190;SDS011;24916;51.676;6.614;2023-05-10T09:40:21;31.30;;;23.27;;
39190;SDS011;24916;51.676;6.614;2023-05-10T09:45:17;29.83;;;21.35;;
39190;SDS011;24916;51.676;6.614;2023-05-10T09:47:43;22.98;;;17.17;;
39190;SDS011;24916;51.676;6.614;2023-05-10T09:50:08;22.90;;;18.67;;
39190;SDS011;24916;51.676;6.614;2023-05-10T09:55:43;23.30;;;17.95;;
39190;SDS011;24916;51.676;6.614;2023-05-10T09:58:12;22.52;;;17.27;;
39190;SDS011;24916;51.676;6.614;2023-05-10T10:03:42;42.53;;;18.63;;
39190;SDS011;24916;51.676;6.614;2023-05-10T10:06:08;18.48;;;14.93;;
39190;SDS011;24916;51.676;6.614;2023-05-10T10:08:34;23.20;;;17.27;;
39190;SDS011;24916;51.676;6.614;2023-05-10T10:10:59;21.60;;;15.35;;
39190;SDS011;24916;51.676;6.614;2023-05-10T10:13:24;33.80;;;23.45;;
39190;SDS011;24916;51.676;6.614;2023-05-10T10:15:50;22.70;;;17.20;;
39190;SDS011;24916;51.676;6.614;2023-05-10T10:18:16;21.60;;;16.30;;
39190;SDS011;24916;51.676;6.614;2023-05-10T10:20:41;19.40;;;15.45;;
39190;SDS011;24916;51.676;6.614;2023-05-10T10:23:07;42.28;;;14.65;;
39190;SDS011;24916;51.676;6.614;2023-05-10T10:25:32;20.90;;;14.57;;
39190;SDS011;24916;51.676;6.614;2023-05-10T10:28:02;22.55;;;17.15;;
39190;SDS011;24916;51.676;6.614;2023-05-10T10:30:41;25.05;;;17.35;;
39190;SDS011;24916;51.676;6.614;2023-05-10T10:35:51;22.52;;;16.75;;
39190;SDS011;24916;51.676;6.614;2023-05-10T10:38:17;23.77;;;15.75;;
39190;SDS011;24916;51.676;6.614;2023-05-10T10:40:42;22.58;;;15.07;;
39190;SDS011;24916;51.676;6.614;2023-05-10T10:46:15;21.55;;;17.73;;
39190;SDS011;24916;51.676;6.614;2023-05-10T10:48:43;22.55;;;17.85;;
39190;SDS011;24916;51.676;6.614;2023-05-10T10:51:11;24.58;;;17.02;;
39190;SDS011;24916;51.676;6.614;2023-05-10T10:53:38;26.52;;;20.50;;
39190;SDS011;24916;51.676;6.614;2023-05-10T10:56:12;23.52;;;19.27;;
39190;SDS011;24916;51.676;6.614;2023-05-10T10:58:40;31.33;;;18.83;;
39190;SDS011;24916;51.676;6.614;2023-05-10T11:01:09;24.67;;;21.02;;
39190;SDS011;24916;51.676;6.614;2023-05-10T11:03:35;23.38;;;18.33;;
39190;SDS011;24916;51.676;6.614;2023-05-10T11:06:00;23.63;;;17.98;;
39190;SDS011;24916;51.676;6.614;2023-05-10T11:13:37;30.25;;;23.45;;
39190;SDS011;24916;51.676;6.614;2023-05-10T11:16:10;30.90;;;23.45;;
39190;SDS011;24916;51.676;6.614;2023-05-10T11:18:35;25.38;;;18.58;;
39190;SDS011;24916;51.676;6.614;2023-05-10T11:21:01;24.05;;;18.02;;
39190;SDS011;24916;51.676;6.614;2023-05-10T11:26:07;24.25;;;18.27;;
39190;SDS011;24916;51.676;6.614;2023-05-10T11:28:34;22.30;;;18.08;;
39190;SDS011;24916;51.676;6.614;2023-05-10T11:30:59;23.75;;;17.13;;
39190;SDS011;24916;51.676;6.614;2023-05-10T11:33:24;23.77;;;18.45;;
39190;SDS011;24916;51.676;6.614;2023-05-10T11:35:50;24.67;;;20.13;;
39190;SDS011;24916;51.676;6.614;2023-05-10T11:38:15;28.42;;;19.27;;
39190;SDS011;24916;51.676;6.614;2023-05-10T11:40:40;31.88;;;25.73;;
39190;SDS011;24916;51.676;6.614;2023-05-10T11:43:05;30.33;;;20.85;;
39190;SDS011;24916;51.676;6.614;2023-05-10T11:45:34;27.70;;;19.00;;
39190;SDS011;24916;51.676;6.614;2023-05-10T11:47:59;22.98;;;18.73;;
39190;SDS011;24916;51.676;6.614;2023-05-10T11:50:25;24.00;;;18.48;;
39190;SDS011;24916;51.676;6.614;2023-05-10T11:52:53;23.25;;;16.83;;
39190;SDS011;24916;51.676;6.614;2023-05-10T11:55:19;21.85;;;15.05;;
39190;SDS011;24916;51.676;6.614;2023-05-10T11:57:44;16.63;;;14.93;;
39190;SDS011;24916;51.676;6.614;2023-05-10T12:00:11;19.10;;;14.20;;
39190;SDS011;24916;51.676;6.614;2023-05-10T12:02:36;21.73;;;15.00;;
39190;SDS011;24916;51.676;6.614;2023-05-10T12:05:02;29.50;;;17.92;;
39190;SDS011;24916;51.676;6.614;2023-05-10T12:07:27;18.52;;;13.77;;
39190;SDS011;24916;51.676;6.614;2023-05-10T12:10:53;15.37;;;13.10;;
39190;SDS011;24916;51.676;6.614;2023-05-10T12:12:47;14.60;;;12.50;;
39190;SDS011;24916;51.676;6.614;2023-05-10T12:17:44;14.20;;;12.20;;
39190;SDS011;24916;51.676;6.614;2023-05-10T12:20:20;15.45;;;11.73;;
39190;SDS011;24916;51.676;6.614;2023-05-10T12:22:49;15.93;;;12.50;;
39190;SDS011;24916;51.676;6.614;2023-05-10T12:25:15;15.73;;;12.27;;
39190;SDS011;24916;51.676;6.614;2023-05-10T12:27:46;14.35;;;12.25;;
39190;SDS011;24916;51.676;6.614;2023-05-10T12:30:12;15.05;;;11.35;;
39190;SDS011;24916;51.676;6.614;2023-05-10T12:32:43;15.48;;;13.48;;
39190;SDS011;24916;51.676;6.614;2023-05-10T12:35:09;16.38;;;12.85;;
39190;SDS011;24916;51.676;6.614;2023-05-10T12:37:34;12.50;;;11.15;;
39190;SDS011;24916;51.676;6.614;2023-05-10T12:40:04;16.58;;;12.02;;
39190;SDS011;24916;51.676;6.614;2023-05-10T12:42:30;16.00;;;12.13;;
39190;SDS011;24916;51.676;6.614;2023-05-10T12:44:56;20.73;;;18.45;;
39190;SDS011;24916;51.676;6.614;2023-05-10T12:47:22;15.13;;;10.88;;
39190;SDS011;24916;51.676;6.614;2023-05-10T12:49:47;18.83;;;10.50;;
39190;SDS011;24916;51.676;6.614;2023-05-10T12:52:12;10.80;;;9.70;;
39190;SDS011;24916;51.676;6.614;2023-05-10T12:54:37;14.57;;;11.07;;
39190;SDS011;24916;51.676;6.614;2023-05-10T12:57:03;16.17;;;10.43;;
39190;SDS011;24916;51.676;6.614;2023-05-10T12:59:28;14.15;;;11.00;;
39190;SDS011;24916;51.676;6.614;2023-05-10T13:01:54;13.32;;;10.52;;
39190;SDS011;24916;51.676;6.614;2023-05-10T13:04:19;16.55;;;11.55;;
39190;SDS011;24916;51.676;6.614;2023-05-10T13:06:45;12.37;;;9.97;;
39190;SDS011;24916;51.676;6.614;2023-05-10T13:09:10;15.02;;;11.50;;
39190;SDS011;24916;51.676;6.614;2023-05-10T13:11:35;16.52;;;11.80;;
39190;SDS011;24916;51.676;6.614;2023-05-10T13:14:01;14.40;;;11.32;;
39190;SDS011;24916;51.676;6.614;2023-05-10T13:16:28;15.20;;;11.15;;
39190;SDS011;24916;51.676;6.614;2023-05-10T13:18:53;15.07;;;11.25;;
39190;SDS011;24916;51.676;6.614;2023-05-10T13:21:18;15.38;;;12.27;;
39190;SDS011;24916;51.676;6.614;2023-05-10T13:23:43;17.03;;;11.23;;
39190;SDS011;24916;51.676;6.614;2023-05-10T13:26:09;13.45;;;11.38;;
39190;SDS011;24916;51.676;6.614;2023-05-10T13:28:34;14.73;;;11.10;;
39190;SDS011;24916;51.676;6.614;2023-05-10T13:30:59;17.98;;;11.43;;
39190;SDS011;24916;51.676;6.614;2023-05-10T13:33:25;13.95;;;10.25;;
39190;SDS011;24916;51.676;6.614;2023-05-10T13:35:50;11.93;;;10.23;;
39190;SDS011;24916;51.676;6.614;2023-05-10T13:38:15;19.15;;;10.27;;
39190;SDS011;24916;51.676;6.614;2023-05-10T13:40:40;13.83;;;9.93;;
39190;SDS011;24916;51.676;6.614;2023-05-10T13:43:06;16.63;;;10.27;;
39190;SDS011;24916;51.676;6.614;2023-05-10T13:45:31;16.58;;;9.93;;
39190;SDS011;24916;51.676;6.614;2023-05-10T13:47:56;10.93;;;8.70;;
39190;SDS011;24916;51.676;6.614;2023-05-10T13:50:22;10.88;;;9.38;;
39190;SDS011;24916;51.676;6.614;2023-05-10T13:52:47;10.17;;;9.00;;
39190;SDS011;24916;51.676;6.614;2023-05-10T13:55:12;18.47;;;11.30;;
39190;SDS011;24916;51.676;6.614;2023-05-10T13:57:38;14.20;;;11.45;;
39190;SDS011;24916;51.676;6.614;2023-05-10T14:00:03;13.73;;;10.23;;
39190;SDS011;24916;51.676;6.614;2023-05-10T14:02:29;19.10;;;14.10;;
39190;SDS011;24916;51.676;6.614;2023-05-10T14:04:54;16.08;;;9.07;;
39190;SDS011;24916;51.676;6.614;2023-05-10T14:07:20;13.50;;;9.43;;
39190;SDS011;24916;51.676;6.614;2023-05-10T14:09:45;12.32;;;9.52;;
39190;SDS011;24916;51.676;6.614;2023-05-10T14:12:10;11.27;;;10.10;;
39190;SDS011;24916;51.676;6.614;2023-05-10T14:14:36;9.93;;;7.93;;
39190;SDS011;24916;51.676;6.614;2023-05-10T14:17:01;12.43;;;8.55;;
39190;SDS011;24916;51.676;6.614;2023-05-10T14:19:26;9.35;;;7.28;;
39190;SDS011;24916;51.676;6.614;2023-05-10T14:21:52;12.50;;;7.50;;
39190;SDS011;24916;51.676;6.614;2023-05-10T14:24:17;9.55;;;6.57;;
39190;SDS011;24916;51.676;6.614;2023-05-10T14:26:43;11.93;;;8.02;;
39190;SDS011;24916;51.676;6.614;2023-05-10T14:29:08;11.83;;;6.90;;
39190;SDS011;24916;51.676;6.614;2023-05-10T14:31:33;9.77;;;6.70;;
39190;SDS011;24916;51.676;6.614;2023-05-10T14:33:58;9.35;;;6.40;;
39190;SDS011;24916;51.676;6.614;2023-05-10T14:36:24;8.52;;;6.35;;
39190;SDS011;24916;51.676;6.614;2023-05-10T14:38:49;7.38;;;5.85;;
39190;SDS011;24916;51.676;6.614;2023-05-10T14:41:15;14.50;;;9.80;;
39190;SDS011;24916;51.676;6.614;2023-05-10T14:43:42;12.95;;;9.57;;
39190;SDS011;24916;51.676;6.614;2023-05-10T14:46:07;15.07;;;7.57;;
39190;SDS011;24916;51.676;6.614;2023-05-10T14:48:33;9.30;;;7.88;;
39190;SDS011;24916;51.676;6.614;2023-05-10T14:50:58;13.30;;;7.25;;
39190;SDS011;24916;51.676;6.614;2023-05-10T14:53:23;8.75;;;6.53;;